sensor_id;sensor_type;location;lat;lon;timestamp;pressure;altitude;pressure_sealevel;temperature;humidity
54236;BME280;40151;43.606;1.472;2023-07-13T00:00:52;99683.19;;;26.90;55.49
54236;BME280;40151;43.606;1.472;2023-07-13T00:03:18;99679.31;;;26.94;54.85
54236;BME280;40151;43.606;1.472;2023-07-13T00:05:43;99684.41;;;26.97;55.24
54236;BME280;40151;43.606;1.472;2023-07-13T00:08:09;99679.22;;;26.96;55.02
54236;BME280;40151;43.606;1.472;2023-07-13T00:10:42;99675.44;;;26.98;55.05
54236;BME280;40151;43.606;1.472;2023-07-13T00:13:08;99679.81;;;26.99;55.04
54236;BME280;40151;43.606;1.472;2023-07-13T00:15:34;99682.72;;;26.96;55.39
54236;BME280;40151;43.606;1.472;2023-07-13T00:18:01;99682.72;;;26.96;55.39
54236;BME280;40151;43.606;1.472;2023-07-13T00:20:26;99681.28;;;26.92;55.17
54236;BME280;40151;43.606;1.472;2023-07-13T00:22:52;99689.41;;;26.90;55.48
54236;BME280;40151;43.606;1.472;2023-07-13T00:25:22;99688.94;;;26.97;55.41
54236;BME280;40151;43.606;1.472;2023-07-13T00:27:49;99687.09;;;26.97;55.00
54236;BME280;40151;43.606;1.472;2023-07-13T00:30:16;99677.13;;;26.99;55.10
54236;BME280;40151;43.606;1.472;2023-07-13T00:32:41;99684.41;;;26.97;55.17
54236;BME280;40151;43.606;1.472;2023-07-13T00:35:07;99684.31;;;26.87;55.62
54236;BME280;40151;43.606;1.472;2023-07-13T00:37:33;99680.91;;;26.85;55.38
54236;BME280;40151;43.606;1.472;2023-07-13T00:40:01;99679.81;;;26.88;55.51
54236;BME280;40151;43.606;1.472;2023-07-13T00:42:27;99673.47;;;26.89;55.55
54236;BME280;40151;43.606;1.472;2023-07-13T00:47:37;99671.50;;;26.91;55.30
54236;BME280;40151;43.606;1.472;2023-07-13T00:50:04;99672.50;;;26.90;55.42
54236;BME280;40151;43.606;1.472;2023-07-13T00:52:32;99670.31;;;26.84;55.54
54236;BME280;40151;43.606;1.472;2023-07-13T00:54:58;99675.56;;;26.85;55.09
54236;BME280;40151;43.606;1.472;2023-07-13T00:57:24;99672.00;;;26.85;55.52
54236;BME280;40151;43.606;1.472;2023-07-13T00:59:57;99680.31;;;26.81;55.14
54236;BME280;40151;43.606;1.472;2023-07-13T01:02:24;99679.59;;;26.68;55.88
54236;BME280;40151;43.606;1.472;2023-07-13T01:04:50;99680.94;;;26.74;55.42
54236;BME280;40151;43.606;1.472;2023-07-13T01:07:16;99677.88;;;26.78;55.36
54236;BME280;40151;43.606;1.472;2023-07-13T01:09:43;99687.88;;;26.76;55.27
54236;BME280;40151;43.606;1.472;2023-07-13T01:12:10;99678.00;;;26.77;55.44
54236;BME280;40151;43.606;1.472;2023-07-13T01:14:36;99679.59;;;26.68;55.62
54236;BME280;40151;43.606;1.472;2023-07-13T01:17:02;99685.94;;;26.67;55.18
54236;BME280;40151;43.606;1.472;2023-07-13T01:19:38;99679.50;;;26.58;55.54
54236;BME280;40151;43.606;1.472;2023-07-13T01:22:09;99678.41;;;26.61;55.35
54236;BME280;40151;43.606;1.472;2023-07-13T01:24:38;99693.88;;;26.57;55.46
54236;BME280;40151;43.606;1.472;2023-07-13T01:27:05;99689.38;;;26.58;55.10
54236;BME280;40151;43.606;1.472;2023-07-13T01:29:32;99681.47;;;26.56;55.50
54236;BME280;40151;43.606;1.472;2023-07-13T01:31:58;99693.53;;;26.50;55.74
54236;BME280;40151;43.606;1.472;2023-07-13T01:34:25;99689.03;;;26.51;55.15
54236;BME280;40151;43.606;1.472;2023-07-13T01:36:51;99686.22;;;26.52;55.08
54236;BME280;40151;43.606;1.472;2023-07-13T01:39:20;99686.22;;;26.52;55.33
54236;BME280;40151;43.606;1.472;2023-07-13T01:41:46;99691.09;;;26.47;55.18
54236;BME280;40151;43.606;1.472;2023-07-13T01:44:11;99694.00;;;26.44;55.44
54236;BME280;40151;43.606;1.472;2023-07-13T01:46:36;99692.69;;;26.50;55.25
54236;BME280;40151;43.606;1.472;2023-07-13T01:49:02;99700.00;;;26.48;55.34
54236;BME280;40151;43.606;1.472;2023-07-13T01:51:27;99699.13;;;26.47;55.06
54236;BME280;40151;43.606;1.472;2023-07-13T01:53:53;99697.44;;;26.46;55.17
54236;BME280;40151;43.606;1.472;2023-07-13T01:56:18;99697.06;;;26.51;55.08
54236;BME280;40151;43.606;1.472;2023-07-13T01:58:45;99694.00;;;26.44;55.20
54236;BME280;40151;43.606;1.472;2023-07-13T02:01:10;99694.38;;;26.39;54.91
54236;BME280;40151;43.606;1.472;2023-07-13T02:03:36;99701.09;;;26.45;55.08
54236;BME280;40151;43.606;1.472;2023-07-13T02:06:01;99697.44;;;26.46;54.74
54236;BME280;40151;43.606;1.472;2023-07-13T02:08:27;99696.69;;;26.44;55.01
54236;BME280;40151;43.606;1.472;2023-07-13T02:10:52;99700.50;;;26.42;54.84
54236;BME280;40151;43.606;1.472;2023-07-13T02:13:18;99695.75;;;26.45;54.58
54236;BME280;40151;43.606;1.472;2023-07-13T02:15:43;99695.00;;;26.43;54.60
54236;BME280;40151;43.606;1.472;2023-07-13T02:18:09;99688.69;;;26.33;54.95
54236;BME280;40151;43.606;1.472;2023-07-13T02:20:34;99692.69;;;26.38;54.61
54236;BME280;40151;43.606;1.472;2023-07-13T02:23:00;99697.44;;;26.35;54.44
54236;BME280;40151;43.606;1.472;2023-07-13T02:25:25;99693.78;;;26.24;54.90
54236;BME280;40151;43.606;1.472;2023-07-13T02:27:52;99703.66;;;26.24;54.54
54236;BME280;40151;43.606;1.472;2023-07-13T02:30:17;99704.00;;;26.31;54.63
54236;BME280;40151;43.606;1.472;2023-07-13T02:32:43;99697.19;;;26.26;54.38
54236;BME280;40151;43.606;1.472;2023-07-13T02:35:09;99697.34;;;26.25;54.56
54236;BME280;40151;43.606;1.472;2023-07-13T02:37:35;99695.25;;;26.29;54.29
54236;BME280;40151;43.606;1.472;2023-07-13T02:40:01;99698.41;;;26.34;54.00
54236;BME280;40151;43.606;1.472;2023-07-13T02:42:28;99701.06;;;26.22;54.39
54236;BME280;40151;43.606;1.472;2023-07-13T02:44:53;99712.25;;;26.16;54.04
54236;BME280;40151;43.606;1.472;2023-07-13T02:47:19;99708.34;;;26.20;54.15
54236;BME280;40151;43.606;1.472;2023-07-13T02:49:44;99715.06;;;26.14;53.70
54236;BME280;40151;43.606;1.472;2023-07-13T02:52:09;99717.34;;;26.08;53.99
54236;BME280;40151;43.606;1.472;2023-07-13T02:54:35;99727.31;;;26.06;53.72
54236;BME280;40151;43.606;1.472;2023-07-13T02:57:00;99717.13;;;25.99;53.53
54236;BME280;40151;43.606;1.472;2023-07-13T02:59:26;99719.06;;;25.97;53.30
54236;BME280;40151;43.606;1.472;2023-07-13T03:01:52;99728.00;;;25.85;52.57
54236;BME280;40151;43.606;1.472;2023-07-13T03:04:17;99721.81;;;25.73;53.06
54236;BME280;40151;43.606;1.472;2023-07-13T03:06:44;99717.78;;;25.67;53.19
54236;BME280;40151;43.606;1.472;2023-07-13T03:09:10;99720.94;;;25.72;53.25
54236;BME280;40151;43.606;1.472;2023-07-13T03:11:37;99730.56;;;25.75;52.54
54236;BME280;40151;43.606;1.472;2023-07-13T03:14:03;99721.44;;;25.78;52.63
54236;BME280;40151;43.606;1.472;2023-07-13T03:16:28;99724.72;;;25.81;52.63
54236;BME280;40151;43.606;1.472;2023-07-13T03:18:55;99727.28;;;25.83;52.01
54236;BME280;40151;43.606;1.472;2023-07-13T03:21:20;99731.56;;;25.85;52.35
54236;BME280;40151;43.606;1.472;2023-07-13T03:23:46;99738.25;;;25.80;51.86
54236;BME280;40151;43.606;1.472;2023-07-13T03:26:15;99741.13;;;25.77;51.97
54236;BME280;40151;43.606;1.472;2023-07-13T03:28:41;99751.81;;;25.77;52.15
54236;BME280;40151;43.606;1.472;2023-07-13T03:31:10;99746.47;;;25.77;51.73
54236;BME280;40151;43.606;1.472;2023-07-13T03:33:36;99752.19;;;25.72;51.53
54236;BME280;40151;43.606;1.472;2023-07-13T03:36:03;99761.66;;;25.76;51.65
54236;BME280;40151;43.606;1.472;2023-07-13T03:38:29;99753.53;;;25.78;51.21
54236;BME280;40151;43.606;1.472;2023-07-13T03:40:55;99769.91;;;25.73;51.32
54236;BME280;40151;43.606;1.472;2023-07-13T03:43:20;99764.66;;;25.60;50.94
54236;BME280;40151;43.606;1.472;2023-07-13T03:45:46;99761.69;;;25.52;50.29
54236;BME280;40151;43.606;1.472;2023-07-13T03:48:12;99760.56;;;25.43;50.61
54236;BME280;40151;43.606;1.472;2023-07-13T03:50:38;99757.97;;;25.30;50.72
54236;BME280;40151;43.606;1.472;2023-07-13T03:53:04;99747.44;;;25.40;50.74
54236;BME280;40151;43.606;1.472;2023-07-13T03:55:29;99753.63;;;25.40;50.31
54236;BME280;40151;43.606;1.472;2023-07-13T04:00:59;99767.16;;;25.26;50.82
54236;BME280;40151;43.606;1.472;2023-07-13T04:03:26;99770.59;;;25.28;50.88
54236;BME280;40151;43.606;1.472;2023-07-13T04:05:55;99771.19;;;25.31;50.69
54236;BME280;40151;43.606;1.472;2023-07-13T04:08:29;99772.03;;;25.32;50.54
54236;BME280;40151;43.606;1.472;2023-07-13T04:10:55;99771.81;;;25.35;50.91
54236;BME280;40151;43.606;1.472;2023-07-13T04:13:21;99781.25;;;25.28;50.50
54236;BME280;40151;43.606;1.472;2023-07-13T04:15:46;99789.78;;;25.33;50.53
54236;BME280;40151;43.606;1.472;2023-07-13T04:18:11;99792.78;;;25.28;50.85
54236;BME280;40151;43.606;1.472;2023-07-13T04:20:37;99782.09;;;25.28;50.77
54236;BME280;40151;43.606;1.472;2023-07-13T04:23:02;99793.41;;;25.32;50.57
54236;BME280;40151;43.606;1.472;2023-07-13T04:25:28;99799.16;;;25.39;50.52
54236;BME280;40151;43.606;1.472;2023-07-13T04:27:53;99802.38;;;25.31;50.30
54236;BME280;40151;43.606;1.472;2023-07-13T04:30:19;99803.34;;;25.30;50.44
54236;BME280;40151;43.606;1.472;2023-07-13T04:32:45;99798.72;;;25.20;50.69
54236;BME280;40151;43.606;1.472;2023-07-13T04:35:11;99797.75;;;25.22;50.49
54236;BME280;40151;43.606;1.472;2023-07-13T04:37:36;99800.41;;;25.22;50.63
54236;BME280;40151;43.606;1.472;2023-07-13T04:40:02;99806.94;;;25.17;50.59
54236;BME280;40151;43.606;1.472;2023-07-13T04:42:28;99803.09;;;25.22;50.74
54236;BME280;40151;43.606;1.472;2023-07-13T04:44:54;99813.63;;;25.23;50.38
54236;BME280;40151;43.606;1.472;2023-07-13T04:47:19;99802.84;;;25.25;50.21
54236;BME280;40151;43.606;1.472;2023-07-13T04:49:45;99804.78;;;25.23;50.37
54236;BME280;40151;43.606;1.472;2023-07-13T04:52:11;99808.88;;;25.15;50.42
54236;BME280;40151;43.606;1.472;2023-07-13T04:54:36;99819.56;;;25.15;50.17
54236;BME280;40151;43.606;1.472;2023-07-13T04:57:03;99814.84;;;25.19;50.31
54236;BME280;40151;43.606;1.472;2023-07-13T04:59:32;99828.31;;;25.17;50.33
54236;BME280;40151;43.606;1.472;2023-07-13T05:01:57;99828.50;;;25.14;50.29
54236;BME280;40151;43.606;1.472;2023-07-13T05:04:23;99834.09;;;25.11;50.01
54236;BME280;40151;43.606;1.472;2023-07-13T05:06:48;99839.63;;;25.08;49.99
54236;BME280;40151;43.606;1.472;2023-07-13T05:09:14;99845.22;;;25.05;49.84
54236;BME280;40151;43.606;1.472;2023-07-13T05:11:39;99834.53;;;25.05;50.06
54236;BME280;40151;43.606;1.472;2023-07-13T05:14:04;99834.28;;;25.08;50.14
54236;BME280;40151;43.606;1.472;2023-07-13T05:16:30;99835.50;;;25.04;50.15
54236;BME280;40151;43.606;1.472;2023-07-13T05:18:57;99835.16;;;25.09;49.64
54236;BME280;40151;43.606;1.472;2023-07-13T05:21:22;99836.88;;;24.97;49.95
54236;BME280;40151;43.606;1.472;2023-07-13T05:23:47;99841.50;;;24.94;49.81
54236;BME280;40151;43.606;1.472;2023-07-13T05:26:13;99836.69;;;25.00;49.60
54236;BME280;40151;43.606;1.472;2023-07-13T05:28:39;99839.25;;;25.01;49.74
54236;BME280;40151;43.606;1.472;2023-07-13T05:31:06;99840.59;;;25.07;49.38
54236;BME280;40151;43.606;1.472;2023-07-13T05:33:32;99843.28;;;25.07;49.18
54236;BME280;40151;43.606;1.472;2023-07-13T05:35:57;99836.69;;;25.00;49.03
54236;BME280;40151;43.606;1.472;2023-07-13T05:38:25;99845.66;;;24.99;49.60
54236;BME280;40151;43.606;1.472;2023-07-13T05:40:53;99849.59;;;25.06;49.45
54236;BME280;40151;43.606;1.472;2023-07-13T05:43:20;99845.66;;;24.99;49.47
54236;BME280;40151;43.606;1.472;2023-07-13T05:45:45;99849.69;;;25.04;49.29
54236;BME280;40151;43.606;1.472;2023-07-13T05:48:11;99854.75;;;24.96;49.27
54236;BME280;40151;43.606;1.472;2023-07-13T05:50:36;99852.81;;;24.98;49.32
54236;BME280;40151;43.606;1.472;2023-07-13T05:53:02;99853.78;;;24.97;49.42
54236;BME280;40151;43.606;1.472;2023-07-13T05:55:27;99862.13;;;24.92;49.39
54236;BME280;40151;43.606;1.472;2023-07-13T05:57:53;99858.69;;;24.90;49.61
54236;BME280;40151;43.606;1.472;2023-07-13T06:00:18;99852.91;;;24.97;49.82
54236;BME280;40151;43.606;1.472;2023-07-13T06:02:44;99851.84;;;24.99;49.26
54236;BME280;40151;43.606;1.472;2023-07-13T06:05:09;99860.38;;;25.04;49.67
54236;BME280;40151;43.606;1.472;2023-07-13T06:07:35;99874.47;;;25.06;49.16
54236;BME280;40151;43.606;1.472;2023-07-13T06:10:00;99872.13;;;25.02;49.05
54236;BME280;40151;43.606;1.472;2023-07-13T06:12:27;99878.22;;;25.04;49.09
54236;BME280;40151;43.606;1.472;2023-07-13T06:14:52;99881.34;;;24.98;49.07
54236;BME280;40151;43.606;1.472;2023-07-13T06:17:18;99878.75;;;24.96;48.69
54236;BME280;40151;43.606;1.472;2023-07-13T06:19:43;99878.88;;;24.94;48.92
54236;BME280;40151;43.606;1.472;2023-07-13T06:22:09;99880.03;;;24.90;49.16
54236;BME280;40151;43.606;1.472;2023-07-13T06:24:34;99887.84;;;24.93;49.28
54236;BME280;40151;43.606;1.472;2023-07-13T06:27:00;99898.00;;;24.88;49.09
54236;BME280;40151;43.606;1.472;2023-07-13T06:29:25;99894.78;;;24.83;49.41
54236;BME280;40151;43.606;1.472;2023-07-13T06:31:51;99899.16;;;24.84;49.42
54236;BME280;40151;43.606;1.472;2023-07-13T06:34:16;99903.56;;;24.85;49.37
54236;BME280;40151;43.606;1.472;2023-07-13T06:36:41;99905.56;;;24.82;49.40
54236;BME280;40151;43.606;1.472;2023-07-13T06:39:07;99905.47;;;24.83;49.40
54236;BME280;40151;43.606;1.472;2023-07-13T06:41:33;99901.63;;;24.87;49.37
54236;BME280;40151;43.606;1.472;2023-07-13T06:43:59;99911.22;;;24.77;49.48
54236;BME280;40151;43.606;1.472;2023-07-13T06:46:25;99914.25;;;24.85;49.76
54236;BME280;40151;43.606;1.472;2023-07-13T06:48:50;99915.94;;;24.86;49.64
54236;BME280;40151;43.606;1.472;2023-07-13T06:51:18;99914.44;;;24.82;49.97
54236;BME280;40151;43.606;1.472;2023-07-13T06:53:44;99915.06;;;24.86;50.06
54236;BME280;40151;43.606;1.472;2023-07-13T06:56:10;99921.03;;;24.89;49.58
54236;BME280;40151;43.606;1.472;2023-07-13T06:58:36;99924.25;;;24.94;49.92
54236;BME280;40151;43.606;1.472;2023-07-13T07:01:03;99922.31;;;24.97;49.38
54236;BME280;40151;43.606;1.472;2023-07-13T07:03:35;99935.47;;;25.00;49.56
54236;BME280;40151;43.606;1.472;2023-07-13T07:06:03;99927.66;;;24.97;49.39
54236;BME280;40151;43.606;1.472;2023-07-13T07:08:31;99929.28;;;24.86;49.25
54236;BME280;40151;43.606;1.472;2023-07-13T07:10:56;99923.63;;;24.91;49.62
54236;BME280;40151;43.606;1.472;2023-07-13T07:13:22;99937.59;;;24.94;49.58
54236;BME280;40151;43.606;1.472;2023-07-13T07:15:49;99935.78;;;24.95;49.39
54236;BME280;40151;43.606;1.472;2023-07-13T07:18:15;99932.06;;;24.98;49.17
54236;BME280;40151;43.606;1.472;2023-07-13T07:20:40;99931.63;;;24.91;49.15
54236;BME280;40151;43.606;1.472;2023-07-13T07:23:11;99928.53;;;24.84;49.25
54236;BME280;40151;43.606;1.472;2023-07-13T07:25:40;99933.22;;;24.93;49.47
54236;BME280;40151;43.606;1.472;2023-07-13T07:28:14;99928.97;;;24.91;49.34
54236;BME280;40151;43.606;1.472;2023-07-13T07:30:46;99927.88;;;24.93;49.43
54236;BME280;40151;43.606;1.472;2023-07-13T07:33:15;99931.53;;;24.92;49.31
54236;BME280;40151;43.606;1.472;2023-07-13T07:35:42;99931.28;;;24.96;49.38
54236;BME280;40151;43.606;1.472;2023-07-13T07:38:07;99931.09;;;24.99;49.50
54236;BME280;40151;43.606;1.472;2023-07-13T07:40:37;99937.16;;;25.01;48.90
54236;BME280;40151;43.606;1.472;2023-07-13T07:43:02;99941.53;;;25.02;49.07
54236;BME280;40151;43.606;1.472;2023-07-13T07:45:28;99942.06;;;25.07;49.06
54236;BME280;40151;43.606;1.472;2023-07-13T07:47:53;99940.59;;;25.03;48.90
54236;BME280;40151;43.606;1.472;2023-07-13T07:50:20;99941.78;;;24.99;48.46
54236;BME280;40151;43.606;1.472;2023-07-13T07:52:45;99937.94;;;25.03;49.07
54236;BME280;40151;43.606;1.472;2023-07-13T07:55:11;99939.72;;;25.02;48.91
54236;BME280;40151;43.606;1.472;2023-07-13T07:57:36;99941.34;;;25.05;49.03
54236;BME280;40151;43.606;1.472;2023-07-13T08:00:02;99939.63;;;25.04;48.89
54236;BME280;40151;43.606;1.472;2023-07-13T08:02:27;99942.31;;;25.04;48.68
54236;BME280;40151;43.606;1.472;2023-07-13T08:04:53;99942.81;;;25.09;48.88
54236;BME280;40151;43.606;1.472;2023-07-13T08:07:18;99946.00;;;25.14;48.81
54236;BME280;40151;43.606;1.472;2023-07-13T08:09:44;99940.44;;;25.17;48.55
54236;BME280;40151;43.606;1.472;2023-07-13T08:12:10;99942.91;;;25.20;48.78
54236;BME280;40151;43.606;1.472;2023-07-13T08:14:35;99943.66;;;25.23;48.76
54236;BME280;40151;43.606;1.472;2023-07-13T08:17:01;99935.53;;;25.24;48.38
54236;BME280;40151;43.606;1.472;2023-07-13T08:19:26;99925.69;;;25.25;48.20
54236;BME280;40151;43.606;1.472;2023-07-13T08:21:51;99939.66;;;25.28;48.18
54236;BME280;40151;43.606;1.472;2023-07-13T08:24:17;99927.91;;;25.31;48.45
54236;BME280;40151;43.606;1.472;2023-07-13T08:26:44;99926.94;;;25.32;47.74
54236;BME280;40151;43.606;1.472;2023-07-13T08:29:10;99931.44;;;25.31;47.99
54236;BME280;40151;43.606;1.472;2023-07-13T08:31:36;99935.47;;;25.37;48.09
54236;BME280;40151;43.606;1.472;2023-07-13T08:34:01;99938.69;;;25.42;48.05
54236;BME280;40151;43.606;1.472;2023-07-13T08:36:28;99936.97;;;25.41;47.46
54236;BME280;40151;43.606;1.472;2023-07-13T08:38:54;99935.81;;;25.45;47.57
54236;BME280;40151;43.606;1.472;2023-07-13T08:41:20;99941.88;;;25.47;47.82
54236;BME280;40151;43.606;1.472;2023-07-13T08:43:50;99945.50;;;25.46;46.86
54236;BME280;40151;43.606;1.472;2023-07-13T08:48:45;99948.91;;;25.48;46.67
54236;BME280;40151;43.606;1.472;2023-07-13T08:54:16;99937.16;;;25.51;45.57
54236;BME280;40151;43.606;1.472;2023-07-13T08:56:45;99935.34;;;25.52;45.27
54236;BME280;40151;43.606;1.472;2023-07-13T08:59:14;99936.13;;;25.54;45.39
54236;BME280;40151;43.606;1.472;2023-07-13T09:05:06;99934.69;;;25.61;46.27
54236;BME280;40151;43.606;1.472;2023-07-13T09:10:27;99932.78;;;25.63;46.30
54236;BME280;40151;43.606;1.472;2023-07-13T09:13:22;99928.16;;;25.65;45.84
54236;BME280;40151;43.606;1.472;2023-07-13T09:15:51;99930.72;;;25.67;45.96
54236;BME280;40151;43.606;1.472;2023-07-13T09:18:26;99927.34;;;25.65;45.66
54236;BME280;40151;43.606;1.472;2023-07-13T09:20:54;99928.56;;;25.72;46.51
54236;BME280;40151;43.606;1.472;2023-07-13T09:23:23;99929.53;;;25.71;46.05
54236;BME280;40151;43.606;1.472;2023-07-13T09:25:52;99935.63;;;25.73;46.28
54236;BME280;40151;43.606;1.472;2023-07-13T09:28:26;99934.53;;;25.76;46.06
54236;BME280;40151;43.606;1.472;2023-07-13T09:31:16;99933.78;;;25.73;45.74
54236;BME280;40151;43.606;1.472;2023-07-13T09:33:44;99931.75;;;25.77;45.61
54236;BME280;40151;43.606;1.472;2023-07-13T09:36:20;99941.38;;;25.80;45.63
54236;BME280;40151;43.606;1.472;2023-07-13T09:38:49;99939.19;;;25.85;46.06
54236;BME280;40151;43.606;1.472;2023-07-13T09:41:28;99937.28;;;25.87;46.42
54236;BME280;40151;43.606;1.472;2023-07-13T09:44:14;99937.91;;;25.91;46.25
54236;BME280;40151;43.606;1.472;2023-07-13T09:46:45;99934.13;;;25.93;46.62
54236;BME280;40151;43.606;1.472;2023-07-13T09:49:11;99934.75;;;25.97;46.66
54236;BME280;40151;43.606;1.472;2023-07-13T09:51:39;99935.63;;;25.97;46.25
54236;BME280;40151;43.606;1.472;2023-07-13T09:54:05;99937.19;;;26.00;46.33
54236;BME280;40151;43.606;1.472;2023-07-13T09:56:31;99936.09;;;26.03;47.22
54236;BME280;40151;43.606;1.472;2023-07-13T09:58:57;99936.75;;;26.06;46.95
54236;BME280;40151;43.606;1.472;2023-07-13T10:01:37;99932.97;;;26.09;47.12
54236;BME280;40151;43.606;1.472;2023-07-13T10:04:13;99941.63;;;26.12;47.39
54236;BME280;40151;43.606;1.472;2023-07-13T10:06:39;99943.44;;;26.12;47.16
54236;BME280;40151;43.606;1.472;2023-07-13T10:09:09;99939.81;;;26.13;46.84
54236;BME280;40151;43.606;1.472;2023-07-13T10:11:36;99942.47;;;26.13;47.04
54236;BME280;40151;43.606;1.472;2023-07-13T10:14:14;99946.63;;;26.17;47.18
54236;BME280;40151;43.606;1.472;2023-07-13T10:16:42;99945.66;;;26.18;47.01
54236;BME280;40151;43.606;1.472;2023-07-13T10:19:22;99949.06;;;26.20;47.37
54236;BME280;40151;43.606;1.472;2023-07-13T10:22:02;99943.72;;;26.20;47.08
54236;BME280;40151;43.606;1.472;2023-07-13T10:24:36;99935.81;;;26.19;47.20
54236;BME280;40151;43.606;1.472;2023-07-13T10:27:20;99954.22;;;26.23;46.94
54236;BME280;40151;43.606;1.472;2023-07-13T10:32:21;99946.38;;;26.20;46.59
54236;BME280;40151;43.606;1.472;2023-07-13T10:34:48;99945.44;;;26.21;47.06
54236;BME280;40151;43.606;1.472;2023-07-13T10:37:22;99943.53;;;26.23;47.02
54236;BME280;40151;43.606;1.472;2023-07-13T10:39:52;99945.22;;;26.24;47.23
54236;BME280;40151;43.606;1.472;2023-07-13T10:44:51;99946.94;;;26.25;46.82
54236;BME280;40151;43.606;1.472;2023-07-13T10:47:17;99949.28;;;26.30;47.25
54236;BME280;40151;43.606;1.472;2023-07-13T10:49:44;99949.81;;;26.22;46.46
54236;BME280;40151;43.606;1.472;2023-07-13T10:53:17;99952.06;;;26.29;47.14
54236;BME280;40151;43.606;1.472;2023-07-13T10:55:41;99951.09;;;26.30;46.88
54236;BME280;40151;43.606;1.472;2023-07-13T10:58:20;99950.34;;;26.27;46.75
54236;BME280;40151;43.606;1.472;2023-07-13T11:03:20;99944.53;;;26.34;47.15
54236;BME280;40151;43.606;1.472;2023-07-13T11:05:49;99944.53;;;26.34;47.51
54236;BME280;40151;43.606;1.472;2023-07-13T11:16:12;99929.72;;;26.41;47.92
54236;BME280;40151;43.606;1.472;2023-07-13T11:18:38;99930.44;;;26.43;47.73
54236;BME280;40151;43.606;1.472;2023-07-13T11:21:15;99934.09;;;26.42;47.86
54236;BME280;40151;43.606;1.472;2023-07-13T11:23:45;99927.53;;;26.46;47.54
54236;BME280;40151;43.606;1.472;2023-07-13T11:29:32;99925.34;;;26.51;47.98
54236;BME280;40151;43.606;1.472;2023-07-13T11:32:01;99928.75;;;26.53;47.68
54236;BME280;40151;43.606;1.472;2023-07-13T11:34:31;99930.34;;;26.56;48.07
54236;BME280;40151;43.606;1.472;2023-07-13T11:36:58;99916.97;;;26.56;47.91
54236;BME280;40151;43.606;1.472;2023-07-13T11:39:44;99913.31;;;26.57;48.02
54236;BME280;40151;43.606;1.472;2023-07-13T11:42:17;99911.50;;;26.58;48.00
54236;BME280;40151;43.606;1.472;2023-07-13T11:44:48;99908.56;;;26.61;47.67
54236;BME280;40151;43.606;1.472;2023-07-13T11:47:22;99905.78;;;26.62;48.07
54236;BME280;40151;43.606;1.472;2023-07-13T11:49:50;99905.78;;;26.62;48.07
54236;BME280;40151;43.606;1.472;2023-07-13T11:52:20;99908.34;;;26.64;48.11
54236;BME280;40151;43.606;1.472;2023-07-13T11:54:55;99895.69;;;26.66;47.98
54236;BME280;40151;43.606;1.472;2023-07-13T11:59:51;99891.19;;;26.66;47.92
54236;BME280;40151;43.606;1.472;2023-07-13T12:02:38;99886.94;;;26.64;47.87
54236;BME280;40151;43.606;1.472;2023-07-13T12:05:10;99884.16;;;26.65;47.95
54236;BME280;40151;43.606;1.472;2023-07-13T12:07:38;99889.25;;;26.68;47.87
